Sunday, April 22, 2018, 12:48 AM GMT
Back to Local

CYYY, Mont Joli, Que.

Location: , , Canada Lat: 48.6
Local Time: 12:48 AM GMT ( 0:48 GMT) Lon: -68.217
Time Zone: GMT Elev: 157 ft

Show me the last for .
Show Decoded

2018-04-22 00:00 METAR CYYY 220000Z 25005KT 15SM SCT100 03/M06 A3015 RMK AC4 SLP216 =
2018-04-21 23:00 METAR CYYY 212300Z 26009KT 15SM FEW080 BKN240 03/M05 A3013 RMK AC1CI4 SLP209 =
2018-04-21 22:00 METAR CYYY 212200Z 26006KT 30SM FEW160 SCT240 05/M08 A3012 RMK AC1CI4 AC TR
                 SLP203 =
2018-04-21 21:00 METAR CYYY 212100Z 26007KT 30SM SCT240 05/M07 A3011 RMK CI4 SLP202 =
2018-04-21 20:00 METAR CYYY 212000Z 26008KT 30SM SCT240 05/M08 A3011 RMK CI4 SLP200 =
2018-04-21 19:00 METAR CYYY 211900Z 25007KT 30SM SCT240 05/M10 A3011 RMK CI3 SLP202 =
2018-04-21 18:00 METAR CYYY 211800Z 27008KT 30SM FEW240 04/M09 A3013 RMK CI2 SLP206 =
2018-04-21 17:00 METAR CYYY 211700Z 27006KT 30SM FEW240 03/M09 A3013 RMK CI2 SLP208 =
2018-04-21 16:00 METAR CYYY 211600Z 27008KT 240V310 30SM FEW240 02/M07 A3014 RMK CI2 SLP210 =
2018-04-21 15:00 METAR CYYY 211500Z 29007KT 30SM SCT240 02/M08 A3015 RMK CI3 SLP216 =
2018-04-21 14:00 METAR CYYY 211400Z 32010KT 30SM SCT240 02/M04 A3016 RMK CI4 SLP218 =
2018-04-21 13:00 METAR CYYY 211300Z 32010KT 30SM SCT240 01/M04 A3015 RMK CI4 SLP215 =
2018-04-21 12:00 METAR CYYY 211200Z 32014KT 30SM BKN240 01/M05 A3015 RMK CI6 SLP214 =
2018-04-21 11:00 METAR CYYY 211100Z 32013KT 30SM SCT150 BKN240 00/M04 A3013 RMK AC3CI4 SLP209 =
2018-04-21 10:00 METAR CYYY 211000Z 32015KT 15SM SCT180 BKN220 00/M05 A3012 RMK CC3CI2 SLP203 =
2018-04-21 09:00 METAR CYYY 210900Z 32011KT 15SM BKN200 00/M04 A3010 RMK CI5 SLP198 =
2018-04-21 08:00 METAR CYYY 210800Z 33012KT 15SM BKN200 00/M04 A3009 RMK CI6 SLP194 =
2018-04-21 07:00 METAR CYYY 210700Z 33011KT 15SM BKN180 00/M03 A3008 RMK CI6 SLP192 =
2018-04-21 06:00 METAR CYYY 210600Z 33009KT 15SM BKN200 01/M03 A3008 RMK CI5 SLP190 =
2018-04-21 05:00 METAR CYYY 210500Z 33009KT 15SM FEW085 01/M02 A3008 RMK AC2 SLP190 =
2018-04-21 04:00 METAR CYYY 210400Z 29004KT 240V310 15SM SCT080 01/M02 A3007 RMK AC3 SLP189 =
2018-04-21 03:00 METAR CYYY 210300Z 26005KT 15SM BKN080 01/M01 A3007 RMK AC5 SLP187 =
2018-04-21 02:00 METAR CYYY 210200Z 24009KT 15SM BKN065 01/M01 A3007 RMK SC7 SLP186 =
2018-04-21 01:00 METAR CYYY 210100Z 23007KT 15SM BKN065 01/M01 A3006 RMK SC7 SLP185 =

Support USWX by starting your Amazon purchase here.